createdAt,value
2019-04-07T00:00:38.161Z,8.19
2019-04-07T00:03:04.636Z,8.18
2019-04-07T00:05:31.542Z,8.17
2019-04-07T00:07:59.050Z,8.18
2019-04-07T00:10:25.857Z,8.16
2019-04-07T00:12:52.208Z,8.15
2019-04-07T00:15:18.928Z,8.13
2019-04-07T00:17:45.585Z,8.09
2019-04-07T00:20:12.481Z,8.06
2019-04-07T00:22:38.774Z,8.03
2019-04-07T00:25:05.381Z,8.01
2019-04-07T00:27:31.919Z,8.02
2019-04-07T00:29:58.006Z,8.01
2019-04-07T00:32:24.948Z,8.00
2019-04-07T00:34:51.808Z,7.97
2019-04-07T00:37:18.343Z,7.93
2019-04-07T00:39:44.512Z,7.87
2019-04-07T00:42:10.775Z,7.81
2019-04-07T00:44:36.946Z,7.76
2019-04-07T00:47:03.206Z,7.72
2019-04-07T00:49:29.713Z,7.65
2019-04-07T00:51:58.393Z,7.60
2019-04-07T00:54:25.444Z,7.55
2019-04-07T00:56:51.780Z,7.50
2019-04-07T00:59:18.225Z,7.44
2019-04-07T01:01:44.982Z,7.36
2019-04-07T01:04:11.242Z,7.32
2019-04-07T01:06:37.373Z,7.28
2019-04-07T01:09:07.900Z,7.26
2019-04-07T01:11:34.299Z,7.24
2019-04-07T01:14:00.664Z,7.22
2019-04-07T01:16:27.406Z,7.22
2019-04-07T01:18:53.725Z,7.24
2019-04-07T01:21:20.372Z,7.25
2019-04-07T01:23:46.881Z,7.23
2019-04-07T01:26:13.085Z,7.22
2019-04-07T01:28:39.325Z,7.23
2019-04-07T01:31:05.597Z,7.23
2019-04-07T01:33:32.328Z,7.23
2019-04-07T01:35:58.550Z,7.23
2019-04-07T01:38:24.759Z,7.23
2019-04-07T01:41:02.065Z,7.23
2019-04-07T01:43:42.148Z,7.23
2019-04-07T01:46:27.311Z,7.22
2019-04-07T01:48:55.950Z,7.18
2019-04-07T01:51:27.009Z,7.11
2019-04-07T01:54:04.434Z,7.03
2019-04-07T01:56:36.256Z,6.98
2019-04-07T01:59:20.963Z,6.91
2019-04-07T02:01:58.152Z,6.86
2019-04-07T02:04:26.146Z,6.82
2019-04-07T02:06:57.574Z,6.77
2019-04-07T02:09:31.682Z,6.71
2019-04-07T02:12:12.012Z,6.68
2019-04-07T02:14:46.640Z,6.65
2019-04-07T02:17:27.238Z,6.63
2019-04-07T02:20:07.899Z,6.61
2019-04-07T02:22:39.364Z,6.57
2019-04-07T02:25:14.022Z,6.55
2019-04-07T02:27:52.123Z,6.50
2019-04-07T02:30:20.406Z,6.46
2019-04-07T02:32:51.227Z,6.44
2019-04-07T02:35:22.922Z,6.42
2019-04-07T02:38:08.289Z,6.38
2019-04-07T02:40:36.481Z,6.37
2019-04-07T02:43:21.351Z,6.36
2019-04-07T02:45:56.454Z,6.35
2019-04-07T02:48:42.584Z,6.34
2019-04-07T02:51:27.647Z,6.31
2019-04-07T02:54:02.527Z,6.29
2019-04-07T02:56:42.894Z,6.28
2019-04-07T02:59:12.048Z,6.27
2019-04-07T03:01:57.655Z,6.26
2019-04-07T03:04:44.506Z,6.25
2019-04-07T03:07:15.294Z,6.27
2019-04-07T03:09:50.336Z,6.25
2019-04-07T03:12:34.160Z,6.22
2019-04-07T03:15:19.364Z,6.19
2019-04-07T03:18:06.883Z,6.13
2019-04-07T03:20:43.575Z,6.07
2019-04-07T03:23:24.630Z,6.00
2019-04-07T03:25:52.828Z,6.05
2019-04-07T03:28:39.978Z,6.00
2019-04-07T03:31:19.292Z,5.94
2019-04-07T03:34:05.983Z,5.91
2019-04-07T03:37:15.073Z,5.91
2019-04-07T03:39:37.239Z,5.90
2019-04-07T03:42:08.708Z,5.87
2019-04-07T03:44:46.911Z,5.84
2019-04-07T03:47:21.264Z,5.86
2019-04-07T03:50:07.185Z,5.84
2019-04-07T03:52:38.054Z,5.83
2019-04-07T03:55:17.165Z,5.83
2019-04-07T03:57:46.256Z,5.81
2019-04-07T04:01:05.100Z,5.82
2019-04-07T04:03:34.274Z,5.82
2019-04-07T04:06:19.412Z,5.82
2019-04-07T04:08:47.789Z,5.84
2019-04-07T04:11:16.189Z,5.85
2019-04-07T04:13:53.435Z,5.88
2019-04-07T04:16:20.124Z,5.88
2019-04-07T04:18:46.448Z,5.92
2019-04-07T04:21:12.566Z,5.93
2019-04-07T04:23:41.527Z,5.88
2019-04-07T04:26:06.901Z,5.84
2019-04-07T04:28:33.139Z,5.82
2019-04-07T04:30:59.894Z,5.81
2019-04-07T04:33:26.217Z,5.81
2019-04-07T04:35:52.394Z,5.83
2019-04-07T04:38:18.665Z,5.85
2019-04-07T04:40:44.867Z,5.86
2019-04-07T04:43:11.204Z,5.90
2019-04-07T04:45:38.470Z,5.91
2019-04-07T04:48:05.012Z,5.94
2019-04-07T04:50:31.817Z,5.94
2019-04-07T04:52:58.029Z,5.95
2019-04-07T04:55:24.347Z,5.96
2019-04-07T04:57:51.209Z,5.95
2019-04-07T05:00:18.766Z,5.94
2019-04-07T05:02:45.714Z,5.93
2019-04-07T05:05:12.473Z,5.95
2019-04-07T05:07:50.149Z,5.94
2019-04-07T05:10:07.853Z,5.95
2019-04-07T05:12:34.302Z,5.96
2019-04-07T05:15:00.404Z,5.99
2019-04-07T05:17:26.630Z,6.01
2019-04-07T05:19:53.407Z,6.04
2019-04-07T05:22:21.203Z,6.07
2019-04-07T05:24:47.658Z,6.11
2019-04-07T05:27:13.999Z,6.16
2019-04-07T05:29:40.254Z,6.20
2019-04-07T05:32:06.887Z,6.24
2019-04-07T05:34:33.430Z,6.29
2019-04-07T05:36:59.553Z,6.33
2019-04-07T05:39:25.834Z,6.37
2019-04-07T05:41:52.555Z,6.41
2019-04-07T05:44:18.921Z,6.45
2019-04-07T05:46:45.295Z,6.50
2019-04-07T05:49:12.291Z,6.54
2019-04-07T05:51:40.231Z,6.56
2019-04-07T05:54:07.155Z,6.59
2019-04-07T05:56:33.397Z,6.61
2019-04-07T05:58:59.721Z,6.66
2019-04-07T06:01:25.994Z,6.70
2019-04-07T06:03:52.274Z,6.76
2019-04-07T06:06:20.086Z,6.82
2019-04-07T06:08:47.819Z,6.86
2019-04-07T06:11:14.811Z,6.92
2019-04-07T06:13:43.851Z,6.97
2019-04-07T06:16:09.549Z,7.02
2019-04-07T06:18:35.859Z,7.08
2019-04-07T06:21:02.754Z,7.14
2019-04-07T06:23:30.182Z,7.19
2019-04-07T06:25:59.139Z,7.24
2019-04-07T06:28:25.112Z,7.29
2019-04-07T06:30:52.044Z,7.36
2019-04-07T06:33:18.258Z,7.41
2019-04-07T06:35:47.263Z,7.47
2019-04-07T06:38:13.303Z,7.53
2019-04-07T06:40:39.528Z,7.58
2019-04-07T06:43:06.364Z,7.65
2019-04-07T06:45:54.918Z,7.73
2019-04-07T06:48:21.273Z,7.81
2019-04-07T06:51:01.735Z,7.89
2019-04-07T06:53:49.072Z,7.96
2019-04-07T06:56:20.698Z,8.04
2019-04-07T06:58:58.137Z,8.18
2019-04-07T07:01:28.364Z,8.30
2019-04-07T07:04:14.001Z,8.38
2019-04-07T07:06:47.105Z,8.44
2019-04-07T07:09:16.305Z,8.60
2019-04-07T07:11:48.523Z,8.72
2019-04-07T07:14:42.296Z,8.83
2019-04-07T07:17:21.455Z,8.93
2019-04-07T07:19:55.129Z,9.09
2019-04-07T07:22:35.696Z,9.11
2019-04-07T07:25:03.191Z,9.12
2019-04-07T07:27:29.496Z,9.21
2019-04-07T07:29:56.543Z,9.27
2019-04-07T07:32:22.998Z,9.39
2019-04-07T07:34:49.773Z,9.50
2019-04-07T07:37:16.078Z,9.65
2019-04-07T07:39:44.896Z,9.77
2019-04-07T07:42:10.560Z,9.87
2019-04-07T07:44:38.482Z,9.97
2019-04-07T07:47:04.908Z,10.04
2019-04-07T07:49:34.755Z,10.13
2019-04-07T07:51:59.324Z,10.25
2019-04-07T07:54:27.985Z,10.36
2019-04-07T07:56:53.622Z,10.45
2019-04-07T07:59:20.129Z,10.58
2019-04-07T08:01:47.559Z,10.73
2019-04-07T08:04:15.252Z,10.87
2019-04-07T08:06:41.558Z,10.94
2019-04-07T08:09:13.727Z,11.03
2019-04-07T08:11:37.297Z,11.18
2019-04-07T08:14:04.037Z,11.26
2019-04-07T08:16:31.462Z,11.30
2019-04-07T08:19:00.503Z,11.42
2019-04-07T08:21:27.066Z,11.53
2019-04-07T08:23:53.530Z,11.64
2019-04-07T08:26:23.870Z,11.76
2019-04-07T08:28:48.222Z,11.81
2019-04-07T08:31:17.757Z,11.82
2019-04-07T08:33:43.261Z,11.87
2019-04-07T08:36:11.641Z,11.99
2019-04-07T08:38:37.689Z,12.08
2019-04-07T08:41:04.202Z,12.20
2019-04-07T08:43:30.781Z,12.30
2019-04-07T08:45:57.851Z,12.46
2019-04-07T08:48:24.203Z,12.58
2019-04-07T08:50:50.476Z,12.59
2019-04-07T08:53:17.007Z,12.70
2019-04-07T08:55:44.350Z,12.75
2019-04-07T08:58:22.734Z,12.68
2019-04-07T09:00:40.854Z,12.91
2019-04-07T09:03:12.141Z,13.12
2019-04-07T09:05:36.439Z,13.27
2019-04-07T09:08:05.525Z,13.50
2019-04-07T09:10:49.623Z,13.71
2019-04-07T09:13:16.398Z,13.95
2019-04-07T09:15:56.765Z,14.31
2019-04-07T09:18:31.341Z,14.63
2019-04-07T09:21:20.461Z,14.81
2019-04-07T09:23:49.028Z,14.85
2019-04-07T09:26:21.906Z,15.05
2019-04-07T09:29:08.540Z,15.20
2019-04-07T09:31:47.647Z,15.42
2019-04-07T09:34:31.180Z,15.41
2019-04-07T09:37:02.351Z,15.54
2019-04-07T09:39:34.525Z,15.82
2019-04-07T09:42:18.766Z,15.80
2019-04-07T09:44:52.895Z,15.92
2019-04-07T09:47:26.994Z,16.02
2019-04-07T09:50:07.452Z,15.98
2019-04-07T09:52:45.893Z,15.91
2019-04-07T09:55:17.858Z,15.68
2019-04-07T09:57:50.371Z,15.95
2019-04-07T10:00:21.658Z,16.02
2019-04-07T10:03:11.458Z,15.82
2019-04-07T10:05:40.391Z,16.10
2019-04-07T10:08:13.941Z,16.97
2019-04-07T10:10:42.240Z,17.31
2019-04-07T10:13:27.484Z,17.75
2019-04-07T10:16:12.109Z,18.26
2019-04-07T10:18:52.264Z,18.70
2019-04-07T10:21:20.675Z,19.11
2019-04-07T10:23:50.617Z,19.30
2019-04-07T10:26:37.920Z,19.63
2019-04-07T10:29:23.074Z,19.71
2019-04-07T10:32:03.479Z,19.52
2019-04-07T10:34:48.544Z,19.50
2019-04-07T10:37:22.479Z,19.57
2019-04-07T10:39:52.688Z,20.53
2019-04-07T10:42:38.819Z,20.89
2019-04-07T10:45:17.421Z,20.66
2019-04-07T10:47:46.103Z,20.34
2019-04-07T10:50:23.016Z,20.35
2019-04-07T10:53:06.296Z,20.12
2019-04-07T10:55:35.131Z,20.22
2019-04-07T10:58:18.561Z,21.56
2019-04-07T11:00:59.708Z,22.28
2019-04-07T11:03:44.468Z,22.71
2019-04-07T11:06:28.409Z,24.26
2019-04-07T11:09:13.340Z,24.40
2019-04-07T11:11:58.887Z,24.03
2019-04-07T11:14:27.147Z,23.41
2019-04-07T11:17:00.359Z,25.35
2019-04-07T11:19:28.593Z,24.40
2019-04-07T11:21:56.803Z,23.29
2019-04-07T11:24:37.149Z,21.73
2019-04-07T11:27:11.571Z,21.36
2019-04-07T11:29:49.724Z,21.59
2019-04-07T11:32:24.169Z,23.46
2019-04-07T11:34:55.419Z,25.75
2019-04-07T11:37:30.882Z,27.01
2019-04-07T11:39:59.104Z,28.55
2019-04-07T11:42:27.142Z,29.28
2019-04-07T11:45:08.222Z,29.92
2019-04-07T11:47:36.272Z,30.24
2019-04-07T11:50:15.213Z,29.90
2019-04-07T11:52:43.321Z,30.21
2019-04-07T11:55:30.073Z,30.37
2019-04-07T11:58:09.892Z,30.48
2019-04-07T12:00:43.347Z,31.87
2019-04-07T12:03:30.001Z,31.52
2019-04-07T12:05:58.187Z,30.88
2019-04-07T12:08:32.345Z,31.01
2019-04-07T12:11:14.426Z,29.91
2019-04-07T12:13:44.606Z,27.63
2019-04-07T12:16:15.672Z,27.18
2019-04-07T12:18:52.138Z,26.40
2019-04-07T12:21:24.025Z,26.45
2019-04-07T12:24:06.093Z,27.15
2019-04-07T12:26:42.429Z,27.30
2019-04-07T12:29:12.708Z,28.80
2019-04-07T12:31:50.023Z,26.66
2019-04-07T12:34:23.997Z,26.12
2019-04-07T12:37:09.060Z,27.49
2019-04-07T12:39:49.538Z,29.38
2019-04-07T12:42:18.905Z,27.92
2019-04-07T12:44:58.981Z,26.14
2019-04-07T12:47:27.628Z,25.03
2019-04-07T12:49:59.656Z,23.87
2019-04-07T12:52:45.176Z,23.04
2019-04-07T12:55:26.402Z,23.52
2019-04-07T12:57:55.400Z,22.88
2019-04-07T13:00:39.094Z,21.98
2019-04-07T13:03:14.715Z,21.23
2019-04-07T13:05:59.111Z,20.55
2019-04-07T13:08:30.597Z,21.02
2019-04-07T13:10:59.103Z,21.52
2019-04-07T13:13:34.196Z,21.69
2019-04-07T13:16:09.131Z,22.07
2019-04-07T13:18:56.580Z,21.96
2019-04-07T13:21:34.148Z,21.65
2019-04-07T13:24:10.970Z,21.22
2019-04-07T13:26:37.885Z,20.97
2019-04-07T13:29:06.352Z,20.58
2019-04-07T13:31:40.936Z,20.38
2019-04-07T13:34:18.235Z,20.04
2019-04-07T13:36:55.271Z,19.90
2019-04-07T13:39:26.345Z,19.85
2019-04-07T13:42:03.436Z,20.21
2019-04-07T13:44:31.997Z,19.99
2019-04-07T13:47:11.722Z,19.71
2019-04-07T13:49:51.968Z,19.46
2019-04-07T13:52:20.900Z,19.20
2019-04-07T13:54:51.117Z,19.03
2019-04-07T13:57:28.400Z,19.22
2019-04-07T14:00:13.450Z,19.08
2019-04-07T14:02:57.083Z,19.10
2019-04-07T14:05:43.023Z,19.07
2019-04-07T14:08:24.205Z,18.92
2019-04-07T14:10:53.948Z,18.46
2019-04-07T14:13:27.881Z,18.37
2019-04-07T14:16:08.430Z,18.37
2019-04-07T14:18:36.728Z,18.32
2019-04-07T14:21:05.011Z,18.31
2019-04-07T14:23:52.168Z,18.30
2019-04-07T14:26:25.882Z,18.30
2019-04-07T14:29:03.141Z,18.45
2019-04-07T14:31:31.271Z,18.41
2019-04-07T14:34:01.509Z,18.33
2019-04-07T14:36:38.312Z,18.21
2019-04-07T14:39:17.906Z,18.02
2019-04-07T14:41:47.315Z,18.15
2019-04-07T14:44:16.605Z,18.05
2019-04-07T14:47:03.265Z,17.85
2019-04-07T14:49:34.744Z,17.43
2019-04-07T14:52:21.451Z,17.23
2019-04-07T14:55:05.030Z,18.85
2019-04-07T14:57:39.087Z,20.05
2019-04-07T15:00:14.174Z,20.94
2019-04-07T15:02:41.164Z,22.16
2019-04-07T15:05:21.668Z,23.34
2019-04-07T15:08:06.552Z,24.09
2019-04-07T15:10:35.158Z,24.34
2019-04-07T15:13:06.169Z,24.80
2019-04-07T15:15:32.527Z,24.39
2019-04-07T15:17:58.821Z,22.84
2019-04-07T15:20:25.121Z,22.29
2019-04-07T15:22:51.753Z,22.28
2019-04-07T15:25:19.498Z,22.27
2019-04-07T15:27:45.803Z,21.41
2019-04-07T15:30:15.561Z,21.02
2019-04-07T15:32:42.696Z,20.80
2019-04-07T15:35:11.806Z,20.21
2019-04-07T15:37:39.486Z,19.83
2019-04-07T15:40:06.931Z,19.58
2019-04-07T15:42:40.390Z,19.27
2019-04-07T15:45:02.431Z,19.15
2019-04-07T15:47:29.881Z,18.81
2019-04-07T15:49:57.783Z,18.57
2019-04-07T15:52:24.250Z,18.53
2019-04-07T15:54:53.352Z,18.38
2019-04-07T15:57:21.697Z,18.25
2019-04-07T15:59:46.520Z,18.18
2019-04-07T16:02:13.356Z,17.95
2019-04-07T16:04:40.727Z,17.93
2019-04-07T16:07:06.989Z,17.86
2019-04-07T16:09:40.360Z,17.68
2019-04-07T16:12:01.735Z,17.64
2019-04-07T16:14:29.809Z,17.66
2019-04-07T16:16:59.622Z,17.58
2019-04-07T16:19:36.488Z,17.43
2019-04-07T16:21:52.761Z,17.42
2019-04-07T16:24:21.892Z,17.31
2019-04-07T16:26:47.957Z,17.16
2019-04-07T16:29:18.064Z,17.03
2019-04-07T16:31:44.285Z,17.00
2019-04-07T16:34:10.743Z,16.91
2019-04-07T16:36:37.686Z,16.86
2019-04-07T16:39:09.205Z,16.82
2019-04-07T16:41:35.041Z,16.71
2019-04-07T16:44:03.543Z,16.58
2019-04-07T16:46:30.457Z,16.49
2019-04-07T16:48:57.774Z,16.40
2019-04-07T16:51:27.912Z,16.32
2019-04-07T16:53:53.181Z,16.27
2019-04-07T16:56:21.867Z,16.23
2019-04-07T16:58:49.006Z,16.18
2019-04-07T17:01:26.618Z,16.13
2019-04-07T17:03:53.092Z,16.00
2019-04-07T17:06:19.967Z,15.94
2019-04-07T17:08:46.838Z,15.91
2019-04-07T17:11:14.015Z,15.77
2019-04-07T17:13:42.670Z,15.65
2019-04-07T17:16:11.609Z,15.53
2019-04-07T17:18:39.076Z,15.47
2019-04-07T17:21:12.807Z,15.45
2019-04-07T17:23:40.817Z,15.43
2019-04-07T17:26:08.064Z,15.38
2019-04-07T17:28:35.756Z,15.36
2019-04-07T17:31:04.603Z,15.32
2019-04-07T17:33:35.069Z,15.24
2019-04-07T17:36:00.860Z,15.10
2019-04-07T17:38:29.178Z,14.96
2019-04-07T17:40:55.537Z,14.81
2019-04-07T17:43:40.555Z,14.62
2019-04-07T17:46:16.736Z,14.47
2019-04-07T17:49:01.325Z,14.31
2019-04-07T17:51:38.263Z,14.14
2019-04-07T17:54:19.520Z,14.02
2019-04-07T17:56:47.590Z,13.93
2019-04-07T17:59:18.502Z,13.85
2019-04-07T18:01:52.455Z,13.76
2019-04-07T18:04:37.739Z,13.68
2019-04-07T18:07:21.314Z,13.60
2019-04-07T18:09:59.446Z,13.53
2019-04-07T18:12:30.722Z,13.46
2019-04-07T18:15:03.582Z,13.37
2019-04-07T18:17:38.016Z,13.37
2019-04-07T18:20:17.270Z,13.34
2019-04-07T18:22:45.419Z,13.33
2019-04-07T18:25:33.301Z,13.31
2019-04-07T18:28:21.492Z,13.28
2019-04-07T18:30:47.237Z,13.22
2019-04-07T18:33:22.774Z,13.13
2019-04-07T18:35:56.901Z,13.03
2019-04-07T18:38:30.912Z,12.96
2019-04-07T18:41:10.752Z,12.90
2019-04-07T18:44:02.374Z,12.79
2019-04-07T18:46:42.212Z,12.71
2019-04-07T18:49:20.310Z,12.62
2019-04-07T18:52:01.886Z,12.55
2019-04-07T18:54:45.089Z,12.52
2019-04-07T18:57:30.572Z,12.44
2019-04-07T19:00:10.665Z,12.40
2019-04-07T19:02:55.804Z,12.27
2019-04-07T19:05:40.828Z,12.16
2019-04-07T19:08:11.836Z,12.04
2019-04-07T19:10:46.582Z,11.93
2019-04-07T19:13:17.651Z,11.85
2019-04-07T19:15:47.860Z,11.78
2019-04-07T19:18:20.433Z,11.70
2019-04-07T19:20:57.852Z,11.63
2019-04-07T19:23:28.513Z,11.59
2019-04-07T19:25:59.720Z,11.52
2019-04-07T19:28:40.310Z,11.47
2019-04-07T19:31:17.484Z,11.37
2019-04-07T19:33:47.487Z,11.35
2019-04-07T19:36:18.059Z,11.35
2019-04-07T19:38:49.275Z,11.31
2019-04-07T19:41:24.878Z,11.27
2019-04-07T19:43:59.004Z,11.18
2019-04-07T19:46:46.058Z,11.10
2019-04-07T19:49:22.541Z,11.03
2019-04-07T19:51:53.562Z,10.97
2019-04-07T19:54:41.801Z,10.91
2019-04-07T19:57:27.874Z,10.88
2019-04-07T19:59:57.037Z,10.89
2019-04-07T20:02:43.211Z,10.91
2019-04-07T20:05:30.307Z,10.94
2019-04-07T20:08:16.132Z,10.94
2019-04-07T20:10:49.871Z,10.94
2019-04-07T20:13:39.503Z,10.94
2019-04-07T20:16:12.902Z,10.89
2019-04-07T20:18:58.828Z,10.84
2019-04-07T20:21:35.843Z,10.82
2019-04-07T20:24:19.644Z,10.74
2019-04-07T20:27:04.096Z,10.68
2019-04-07T20:29:48.345Z,10.62
2019-04-07T20:32:16.609Z,10.62
2019-04-07T20:34:54.764Z,10.59
2019-04-07T20:37:26.216Z,10.53
2019-04-07T20:39:56.114Z,10.48
2019-04-07T20:42:26.859Z,10.45
2019-04-07T20:45:03.805Z,10.41
2019-04-07T20:47:31.751Z,10.38
2019-04-07T20:50:02.758Z,10.34
2019-04-07T20:52:46.089Z,10.35
2019-04-07T20:55:23.310Z,10.37
2019-04-07T20:58:14.416Z,10.40
2019-04-07T21:00:36.864Z,10.44
2019-04-07T21:03:23.817Z,10.47
2019-04-07T21:06:02.117Z,10.50
2019-04-07T21:08:39.963Z,10.51
2019-04-07T21:11:08.271Z,10.50
2019-04-07T21:13:36.360Z,10.53
2019-04-07T21:16:17.755Z,10.55
2019-04-07T21:21:46.469Z,10.55
2019-04-07T21:24:19.850Z,10.54
2019-04-07T21:26:51.121Z,10.49
2019-04-07T21:29:22.780Z,10.42
2019-04-07T21:31:54.074Z,10.32
2019-04-07T21:34:22.847Z,10.24
2019-04-07T21:37:10.705Z,10.18
2019-04-07T21:39:39.600Z,10.11
2019-04-07T21:42:21.995Z,10.03
2019-04-07T21:45:07.288Z,9.93
2019-04-07T21:47:41.327Z,9.84
2019-04-07T21:50:26.490Z,9.75
2019-04-07T21:53:12.812Z,9.68
2019-04-07T21:55:44.601Z,9.61
2019-04-07T21:58:28.175Z,9.52
2019-04-07T22:01:02.808Z,9.44
2019-04-07T22:03:29.343Z,9.36
2019-04-07T22:06:14.555Z,9.30
2019-04-07T22:08:59.011Z,9.25
2019-04-07T22:11:28.987Z,9.17
2019-04-07T22:13:53.923Z,9.08
2019-04-07T22:16:23.945Z,9.02
2019-04-07T22:18:49.306Z,8.96
2019-04-07T22:21:15.412Z,8.90
2019-04-07T22:23:42.238Z,8.86
2019-04-07T22:26:13.442Z,8.79
2019-04-07T22:28:37.298Z,8.74
2019-04-07T22:31:03.720Z,8.67
2019-04-07T22:33:32.363Z,8.67
2019-04-07T22:35:58.266Z,8.63
2019-04-07T22:38:25.262Z,8.62
2019-04-07T22:40:52.232Z,8.62
2019-04-07T22:43:18.882Z,8.61
2019-04-07T22:45:54.991Z,8.59
2019-04-07T22:48:14.658Z,8.56
2019-04-07T22:50:41.322Z,8.54
2019-04-07T22:53:07.575Z,8.52
2019-04-07T22:55:35.919Z,8.46
2019-04-07T22:58:01.926Z,8.41
2019-04-07T23:00:28.781Z,8.42
2019-04-07T23:02:55.383Z,8.41
2019-04-07T23:05:21.959Z,8.42
2019-04-07T23:07:48.179Z,8.41
2019-04-07T23:10:16.099Z,8.37
2019-04-07T23:12:42.509Z,8.35
2019-04-07T23:15:09.180Z,8.34
2019-04-07T23:17:36.222Z,8.32
2019-04-07T23:20:07.386Z,8.29
2019-04-07T23:22:34.027Z,8.25
2019-04-07T23:25:01.645Z,8.23
2019-04-07T23:27:27.791Z,8.18
2019-04-07T23:29:54.861Z,8.17
2019-04-07T23:32:21.285Z,8.15
2019-04-07T23:34:47.793Z,8.18
2019-04-07T23:37:14.481Z,8.17
2019-04-07T23:39:40.838Z,8.15
2019-04-07T23:42:07.047Z,8.12
2019-04-07T23:44:33.502Z,8.09
2019-04-07T23:46:59.661Z,8.08
2019-04-07T23:49:26.134Z,8.06
2019-04-07T23:51:53.168Z,8.04
2019-04-07T23:54:19.530Z,8.01
2019-04-07T23:56:45.799Z,8.01
2019-04-07T23:59:12.653Z,8.01
